createdAt,value
2022-11-28T00:00:54.585Z,77.68
2022-11-28T00:03:25.039Z,76.74
2022-11-28T00:05:59.608Z,76.11
2022-11-28T00:08:29.758Z,76.33
2022-11-28T00:10:59.672Z,76.10
2022-11-28T00:13:29.828Z,75.96
2022-11-28T00:16:03.822Z,76.01
2022-11-28T00:18:34.083Z,75.66
2022-11-28T00:21:04.442Z,76.54
2022-11-28T00:23:34.621Z,76.39
2022-11-28T00:26:08.306Z,77.84
2022-11-28T00:28:38.511Z,77.47
2022-11-28T00:31:15.703Z,77.19
2022-11-28T00:33:47.247Z,76.64
2022-11-28T00:36:18.561Z,76.19
2022-11-28T00:38:48.864Z,75.52
2022-11-28T00:41:20.496Z,74.89
2022-11-28T00:43:53.180Z,74.49
2022-11-28T00:46:26.692Z,74.26
2022-11-28T00:48:56.660Z,74.16
2022-11-28T00:51:28.508Z,73.24
2022-11-28T00:53:59.993Z,73.79
2022-11-28T00:56:31.846Z,73.13
2022-11-28T00:59:02.110Z,72.06
2022-11-28T01:01:36.651Z,71.69
2022-11-28T01:04:09.813Z,71.69
2022-11-28T01:06:42.577Z,72.01
2022-11-28T01:09:14.982Z,72.02
2022-11-28T01:11:46.445Z,72.18
2022-11-28T01:14:16.649Z,72.45
2022-11-28T01:16:49.288Z,71.20
2022-11-28T01:19:20.042Z,71.38
2022-11-28T01:21:50.272Z,71.64
2022-11-28T01:24:20.346Z,71.05
2022-11-28T01:26:50.267Z,71.84
2022-11-28T01:29:20.274Z,71.86
2022-11-28T01:31:52.979Z,71.44
2022-11-28T01:34:22.993Z,71.37
2022-11-28T01:36:52.896Z,70.55
2022-11-28T01:39:22.788Z,70.62
2022-11-28T01:41:52.687Z,70.09
2022-11-28T01:44:58.415Z,69.82
2022-11-28T01:47:33.507Z,70.43
2022-11-28T01:50:03.981Z,70.65
2022-11-28T01:52:34.072Z,70.92
2022-11-28T01:55:05.784Z,71.37
2022-11-28T01:57:36.189Z,71.78
2022-11-28T02:00:10.500Z,72.09
2022-11-28T02:02:50.643Z,71.25
2022-11-28T02:05:22.447Z,71.60
2022-11-28T02:07:54.315Z,71.96
2022-11-28T02:10:28.396Z,72.27
2022-11-28T02:13:16.612Z,71.66
2022-11-28T02:16:01.645Z,71.85
2022-11-28T02:18:51.363Z,71.70
2022-11-28T02:21:43.647Z,72.42
2022-11-28T02:24:41.212Z,70.73
2022-11-28T02:27:39.003Z,71.80
2022-11-28T02:30:18.155Z,71.55
2022-11-28T02:33:09.852Z,71.03
2022-11-28T02:35:52.527Z,71.66
2022-11-28T02:38:31.796Z,71.80
2022-11-28T02:41:09.438Z,71.94
2022-11-28T02:43:45.770Z,72.41
2022-11-28T02:46:19.598Z,72.12
2022-11-28T02:48:58.118Z,72.97
2022-11-28T02:51:34.940Z,73.13
2022-11-28T02:54:07.538Z,72.35
2022-11-28T02:56:37.894Z,71.71
2022-11-28T02:59:08.491Z,71.19
2022-11-28T03:01:42.413Z,71.98
2022-11-28T03:04:29.022Z,71.22
2022-11-28T03:07:10.152Z,72.20
2022-11-28T03:10:04.634Z,72.40
2022-11-28T03:12:44.322Z,71.56
2022-11-28T03:15:16.459Z,71.99
2022-11-28T03:17:55.119Z,72.24
2022-11-28T03:20:39.650Z,71.60
2022-11-28T03:23:17.541Z,70.90
2022-11-28T03:25:58.109Z,71.97
2022-11-28T03:28:33.282Z,72.26
2022-11-28T03:31:06.710Z,72.54
2022-11-28T03:33:40.138Z,72.77
2022-11-28T03:36:17.968Z,72.20
2022-11-28T03:38:53.931Z,72.03
2022-11-28T03:41:28.636Z,72.52
2022-11-28T03:44:01.107Z,71.83
2022-11-28T03:46:44.825Z,70.91
2022-11-28T03:49:18.769Z,70.55
2022-11-28T03:51:56.125Z,71.27
2022-11-28T03:54:31.546Z,71.37
2022-11-28T03:57:07.978Z,71.16
2022-11-28T03:59:41.266Z,71.43
2022-11-28T04:02:19.150Z,70.87
2022-11-28T04:04:56.891Z,71.01
2022-11-28T04:07:35.122Z,71.19
2022-11-28T04:10:09.501Z,71.00
2022-11-28T04:12:49.140Z,70.79
2022-11-28T04:15:23.958Z,70.09
2022-11-28T04:18:01.113Z,69.47
2022-11-28T04:20:38.583Z,69.76
2022-11-28T04:23:15.401Z,69.82
2022-11-28T04:25:51.421Z,69.86
2022-11-28T04:28:26.590Z,69.54
2022-11-28T04:30:59.319Z,69.76
2022-11-28T04:33:31.891Z,69.30
2022-11-28T04:36:04.466Z,69.51
2022-11-28T04:38:38.338Z,68.97
2022-11-28T04:41:13.283Z,69.75
2022-11-28T04:43:46.473Z,70.20
2022-11-28T04:46:21.118Z,70.42
2022-11-28T04:48:51.170Z,70.32
2022-11-28T04:51:25.364Z,71.37
2022-11-28T04:54:07.907Z,72.11
2022-11-28T04:56:46.842Z,72.04
2022-11-28T04:59:17.652Z,72.15
2022-11-28T05:01:50.927Z,72.06
2022-11-28T05:04:21.064Z,72.74
2022-11-28T05:06:51.066Z,73.02
2022-11-28T05:09:23.527Z,73.23
2022-11-28T05:11:53.342Z,72.69
2022-11-28T05:14:23.478Z,72.37
2022-11-28T05:16:53.638Z,73.25
2022-11-28T05:19:23.773Z,72.89
2022-11-28T05:21:53.680Z,72.95
2022-11-28T05:24:31.959Z,73.09
2022-11-28T05:27:02.184Z,72.72
2022-11-28T05:29:32.136Z,72.51
2022-11-28T05:32:02.035Z,72.55
2022-11-28T05:34:32.077Z,72.38
2022-11-28T05:37:01.919Z,71.65
2022-11-28T05:39:34.855Z,71.10
2022-11-28T05:42:04.749Z,71.23
2022-11-28T05:44:34.679Z,70.95
2022-11-28T05:47:04.640Z,71.25
2022-11-28T05:49:34.633Z,71.41
2022-11-28T05:52:04.527Z,71.57
2022-11-28T05:54:37.179Z,71.62
2022-11-28T05:57:09.092Z,71.32
2022-11-28T05:59:40.282Z,71.25
2022-11-28T06:02:10.396Z,71.52
2022-11-28T06:04:42.097Z,71.09
2022-11-28T06:07:12.106Z,71.43
2022-11-28T06:09:45.822Z,71.23
2022-11-28T06:12:15.877Z,71.38
2022-11-28T06:14:45.877Z,71.30
2022-11-28T06:17:16.879Z,70.53
2022-11-28T06:19:48.839Z,70.71
2022-11-28T06:22:19.831Z,71.08
2022-11-28T06:24:53.899Z,71.17
2022-11-28T06:27:23.806Z,73.64
2022-11-28T06:29:54.811Z,74.78
2022-11-28T06:32:24.763Z,76.79
2022-11-28T06:34:55.795Z,77.63
2022-11-28T06:37:25.714Z,78.23
2022-11-28T06:39:59.280Z,79.78
2022-11-28T06:42:29.268Z,78.97
2022-11-28T06:45:00.212Z,78.82
2022-11-28T06:47:30.080Z,76.77
2022-11-28T06:50:02.006Z,76.05
2022-11-28T06:52:31.957Z,76.38
2022-11-28T06:55:06.000Z,76.11
2022-11-28T06:57:36.858Z,76.37
2022-11-28T07:00:09.210Z,76.91
2022-11-28T07:02:42.093Z,77.88
2022-11-28T07:05:13.228Z,78.15
2022-11-28T07:07:53.566Z,79.48
2022-11-28T07:10:29.062Z,79.89
2022-11-28T07:13:05.330Z,78.73
2022-11-28T07:15:36.417Z,80.01
2022-11-28T07:18:08.550Z,80.82
2022-11-28T07:20:39.999Z,82.74
2022-11-28T07:23:10.369Z,83.02
2022-11-28T07:25:44.393Z,82.32
2022-11-28T07:28:14.864Z,82.27
2022-11-28T07:30:45.373Z,83.78
2022-11-28T07:33:16.454Z,83.03
2022-11-28T07:35:47.332Z,85.22
2022-11-28T07:38:17.309Z,85.13
2022-11-28T07:40:50.526Z,85.91
2022-11-28T07:43:21.419Z,86.97
2022-11-28T07:46:00.533Z,87.59
2022-11-28T07:48:33.432Z,88.03
2022-11-28T07:51:09.395Z,87.68
2022-11-28T07:53:39.849Z,87.11
2022-11-28T07:56:15.363Z,87.15
2022-11-28T07:58:47.222Z,86.54
2022-11-28T08:01:19.827Z,85.57
2022-11-28T08:03:56.191Z,84.95
2022-11-28T08:06:29.746Z,84.36
2022-11-28T08:09:02.519Z,83.38
2022-11-28T08:11:36.691Z,83.30
2022-11-28T08:14:06.999Z,82.97
2022-11-28T08:16:37.238Z,83.23
2022-11-28T08:19:08.275Z,83.45
2022-11-28T08:21:38.146Z,83.07
2022-11-28T08:24:10.769Z,83.97
2022-11-28T08:26:43.430Z,84.00
2022-11-28T08:29:14.370Z,83.50
2022-11-28T08:31:45.344Z,82.32
2022-11-28T08:34:15.292Z,82.96
2022-11-28T08:36:47.440Z,83.36
2022-11-28T08:39:25.499Z,83.85
2022-11-28T08:42:00.356Z,82.85
2022-11-28T08:44:31.230Z,82.47
2022-11-28T08:47:01.208Z,82.78
2022-11-28T08:49:32.617Z,83.10
2022-11-28T08:52:03.588Z,83.75
2022-11-28T08:54:33.560Z,84.90
2022-11-28T08:57:07.348Z,83.99
2022-11-28T08:59:37.389Z,83.81
2022-11-28T09:02:08.380Z,83.06
2022-11-28T09:04:38.402Z,83.03
2022-11-28T09:07:09.484Z,81.56
2022-11-28T09:09:40.466Z,80.72
2022-11-28T09:12:13.770Z,80.44
2022-11-28T09:14:43.890Z,80.49
2022-11-28T09:17:15.845Z,80.37
2022-11-28T09:19:46.904Z,80.88
2022-11-28T09:22:17.874Z,80.85
2022-11-28T09:24:47.784Z,80.30
2022-11-28T09:27:22.409Z,79.99
2022-11-28T09:29:53.329Z,81.03
2022-11-28T09:32:24.303Z,81.46
2022-11-28T09:34:55.256Z,82.03
2022-11-28T09:37:26.299Z,82.05
2022-11-28T09:40:12.623Z,82.41
2022-11-28T09:42:47.178Z,82.31
2022-11-28T09:45:20.114Z,82.59
2022-11-28T09:47:56.302Z,83.71
2022-11-28T09:50:30.218Z,84.19
2022-11-28T09:53:05.121Z,84.24
2022-11-28T09:55:42.064Z,83.88
2022-11-28T09:58:21.121Z,83.81
2022-11-28T10:00:59.759Z,82.97
2022-11-28T10:03:39.428Z,82.62
2022-11-28T10:06:19.260Z,82.25
2022-11-28T10:09:11.696Z,82.31
2022-11-28T10:11:52.796Z,82.76
2022-11-28T10:14:57.907Z,82.48
2022-11-28T10:17:39.827Z,82.60
2022-11-28T10:20:17.108Z,82.41
2022-11-28T10:22:51.385Z,82.71
2022-11-28T10:25:27.825Z,82.87
2022-11-28T10:27:59.853Z,82.85
2022-11-28T10:30:39.154Z,82.80
2022-11-28T10:33:24.171Z,83.01
2022-11-28T10:35:59.355Z,82.81
2022-11-28T10:38:31.646Z,82.90
2022-11-28T10:41:07.549Z,82.01
2022-11-28T10:43:46.897Z,82.36
2022-11-28T10:46:45.808Z,82.56
2022-11-28T10:49:45.434Z,82.05
2022-11-28T10:52:22.495Z,82.42
2022-11-28T10:55:07.837Z,84.30
2022-11-28T10:57:45.452Z,84.35
2022-11-28T11:00:18.262Z,84.38
2022-11-28T11:02:54.829Z,83.02
2022-11-28T11:05:29.738Z,83.67
2022-11-28T11:08:02.131Z,83.88
2022-11-28T11:10:38.921Z,84.68
2022-11-28T11:13:17.480Z,84.95
2022-11-28T11:15:48.365Z,84.99
2022-11-28T11:18:28.744Z,85.15
2022-11-28T11:21:17.315Z,84.50
2022-11-28T11:23:48.404Z,83.07
2022-11-28T11:26:26.133Z,82.10
2022-11-28T11:28:59.128Z,82.19
2022-11-28T11:31:34.112Z,82.38
2022-11-28T11:34:09.530Z,82.33
2022-11-28T11:36:40.123Z,82.21
2022-11-28T11:39:23.060Z,81.72
2022-11-28T11:41:54.735Z,81.35
2022-11-28T11:44:34.508Z,80.55
2022-11-28T11:47:07.695Z,80.02
2022-11-28T11:49:41.791Z,79.92
2022-11-28T11:52:20.566Z,79.22
2022-11-28T11:55:00.641Z,79.86
2022-11-28T11:57:35.119Z,79.98
2022-11-28T12:00:10.133Z,80.25
2022-11-28T12:02:47.184Z,80.91
2022-11-28T12:05:23.296Z,80.65
2022-11-28T12:08:00.134Z,80.40
2022-11-28T12:10:33.204Z,79.50
2022-11-28T12:13:04.851Z,77.86
2022-11-28T12:15:45.723Z,77.52
2022-11-28T12:18:28.338Z,78.74
2022-11-28T12:21:14.073Z,79.29
2022-11-28T12:23:58.451Z,79.86
2022-11-28T12:26:35.643Z,80.31
2022-11-28T12:29:29.123Z,80.35
2022-11-28T12:32:11.233Z,79.54
2022-11-28T12:34:52.814Z,80.05
2022-11-28T12:38:09.020Z,79.42
2022-11-28T12:40:38.483Z,79.31
2022-11-28T12:43:25.468Z,78.77
2022-11-28T12:46:02.669Z,79.50
2022-11-28T12:48:52.832Z,81.75
2022-11-28T12:51:33.636Z,83.21
2022-11-28T12:54:19.039Z,83.50
2022-11-28T12:56:59.881Z,84.54
2022-11-28T12:59:36.606Z,83.54
2022-11-28T13:02:23.642Z,83.48
2022-11-28T13:05:15.727Z,83.25
2022-11-28T13:07:55.001Z,83.08
2022-11-28T13:10:34.943Z,82.75
2022-11-28T13:13:11.574Z,81.96
2022-11-28T13:15:54.253Z,82.43
2022-11-28T13:18:35.820Z,81.99
2022-11-28T13:21:18.078Z,81.45
2022-11-28T13:23:54.098Z,80.74
2022-11-28T13:26:43.605Z,80.81
2022-11-28T13:29:26.588Z,81.27
2022-11-28T13:32:03.359Z,82.03
2022-11-28T13:34:34.143Z,81.14
2022-11-28T13:40:09.486Z,80.02
2022-11-28T13:43:07.581Z,80.22
2022-11-28T13:45:40.205Z,80.38
2022-11-28T13:49:12.739Z,79.34
2022-11-28T13:51:32.793Z,79.53
2022-11-28T13:54:46.379Z,79.29
2022-11-28T13:57:32.486Z,79.00
2022-11-28T14:00:10.327Z,79.29
2022-11-28T14:02:48.530Z,78.99
2022-11-28T14:05:36.237Z,76.74
2022-11-28T14:08:10.489Z,77.18
2022-11-28T14:11:01.991Z,77.51
2022-11-28T14:13:55.402Z,77.66
2022-11-28T14:16:45.500Z,78.09
2022-11-28T14:19:34.959Z,77.98
2022-11-28T14:22:20.424Z,78.08
2022-11-28T14:24:59.273Z,78.19
2022-11-28T14:27:32.839Z,78.76
2022-11-28T14:30:04.035Z,79.12
2022-11-28T14:32:43.291Z,79.12
2022-11-28T14:35:20.067Z,79.72
2022-11-28T14:37:57.755Z,79.38
2022-11-28T14:41:11.748Z,79.46
2022-11-28T14:43:42.621Z,79.98
2022-11-28T14:46:28.401Z,79.13
2022-11-28T14:49:25.669Z,78.86
2022-11-28T14:52:41.443Z,78.56
2022-11-28T14:55:06.468Z,78.39
2022-11-28T14:57:53.945Z,77.82
2022-11-28T15:00:27.854Z,77.98
2022-11-28T15:03:16.374Z,77.63
2022-11-28T15:05:54.790Z,77.85
2022-11-28T15:08:45.634Z,77.83
2022-11-28T15:11:41.569Z,77.21
2022-11-28T15:14:22.559Z,77.57
2022-11-28T15:16:58.538Z,77.55
2022-11-28T15:19:33.813Z,77.62
2022-11-28T15:22:06.402Z,78.05
2022-11-28T15:24:38.215Z,78.47
2022-11-28T15:27:26.366Z,78.08
2022-11-28T15:30:04.479Z,78.44
2022-11-28T15:32:39.659Z,78.61
2022-11-28T15:35:16.585Z,79.52
2022-11-28T15:37:56.664Z,79.79
2022-11-28T15:40:33.046Z,80.22
2022-11-28T15:43:08.036Z,81.28
2022-11-28T15:45:42.891Z,81.80
2022-11-28T15:48:30.965Z,81.63
2022-11-28T15:51:09.855Z,82.45
2022-11-28T15:53:45.898Z,82.13
2022-11-28T15:56:19.152Z,82.07
2022-11-28T15:58:52.915Z,82.23
2022-11-28T16:01:27.362Z,82.22
2022-11-28T16:04:05.031Z,82.83
2022-11-28T16:06:42.697Z,82.67
2022-11-28T16:09:29.892Z,81.96
2022-11-28T16:11:59.980Z,81.93
2022-11-28T16:14:36.133Z,81.25
2022-11-28T16:17:12.917Z,80.81
2022-11-28T16:19:46.641Z,80.85
2022-11-28T16:22:22.133Z,80.52
2022-11-28T16:24:56.646Z,80.72
2022-11-28T16:27:36.091Z,80.33
2022-11-28T16:30:29.408Z,80.30
2022-11-28T16:33:03.502Z,80.57
2022-11-28T16:35:38.862Z,80.91
2022-11-28T16:38:19.118Z,81.32
2022-11-28T16:41:02.779Z,81.47
2022-11-28T16:43:38.597Z,81.25
2022-11-28T16:46:22.888Z,80.91
2022-11-28T16:48:59.375Z,80.88
2022-11-28T16:51:38.117Z,80.30
2022-11-28T16:54:35.199Z,79.85
2022-11-28T16:57:15.502Z,80.86
2022-11-28T16:59:46.785Z,81.87
2022-11-28T17:02:20.648Z,81.84
2022-11-28T17:04:52.378Z,81.57
2022-11-28T17:07:26.543Z,81.61
2022-11-28T17:09:58.472Z,81.73
2022-11-28T17:12:36.143Z,82.10
2022-11-28T17:15:16.878Z,82.54
2022-11-28T17:17:48.072Z,82.67
2022-11-28T17:20:20.517Z,82.73
2022-11-28T17:22:56.479Z,82.80
2022-11-28T17:25:28.410Z,82.95
2022-11-28T17:28:00.915Z,82.75
2022-11-28T17:30:34.652Z,82.19
2022-11-28T17:33:06.592Z,82.39
2022-11-28T17:35:45.636Z,82.38
2022-11-28T17:38:16.528Z,83.01
2022-11-28T17:40:46.890Z,83.10
2022-11-28T17:43:24.280Z,82.63
2022-11-28T17:45:54.305Z,82.67
2022-11-28T17:48:24.402Z,82.42
2022-11-28T17:50:57.663Z,81.48
2022-11-28T17:53:27.693Z,81.53
2022-11-28T17:56:01.143Z,81.40
2022-11-28T17:58:33.875Z,81.42
2022-11-28T18:01:12.543Z,81.69
2022-11-28T18:03:42.756Z,81.81
2022-11-28T18:06:18.156Z,82.02
2022-11-28T18:08:49.307Z,81.71
2022-11-28T18:11:22.726Z,81.89
2022-11-28T18:13:58.694Z,81.60
2022-11-28T18:16:30.925Z,81.55
2022-11-28T18:19:00.966Z,81.63
2022-11-28T18:21:31.969Z,81.98
2022-11-28T18:24:04.729Z,81.48
2022-11-28T18:26:34.983Z,81.63
2022-11-28T18:29:09.973Z,81.22
2022-11-28T18:31:40.662Z,81.57
2022-11-28T18:34:11.926Z,81.25
2022-11-28T18:36:43.700Z,81.92
2022-11-28T18:39:17.159Z,82.00
2022-11-28T18:41:47.760Z,82.33
2022-11-28T18:44:21.144Z,82.32
2022-11-28T18:46:52.730Z,82.89
2022-11-28T18:49:22.823Z,82.78
2022-11-28T18:51:57.595Z,83.36
2022-11-28T18:54:31.153Z,83.39
2022-11-28T18:57:01.140Z,83.68
2022-11-28T18:59:34.111Z,84.40
2022-11-28T19:02:04.169Z,84.91
2022-11-28T19:04:34.500Z,84.63
2022-11-28T19:07:04.404Z,85.36
2022-11-28T19:09:34.420Z,85.91
2022-11-28T19:12:05.387Z,85.65
2022-11-28T19:14:42.478Z,85.94
2022-11-28T19:17:12.585Z,85.69
2022-11-28T19:19:47.712Z,85.43
2022-11-28T19:22:18.897Z,86.02
2022-11-28T19:24:49.088Z,86.32
2022-11-28T19:27:19.085Z,85.79
2022-11-28T19:29:55.316Z,86.37
2022-11-28T19:32:28.630Z,86.34
2022-11-28T19:35:00.606Z,86.44
2022-11-28T19:37:30.953Z,87.13
2022-11-28T19:40:08.278Z,87.17
2022-11-28T19:42:44.442Z,86.80
2022-11-28T19:45:17.178Z,87.25
2022-11-28T19:47:48.677Z,88.14
2022-11-28T19:50:19.031Z,87.61
2022-11-28T19:52:52.700Z,87.49
2022-11-28T19:55:28.456Z,88.39
2022-11-28T19:57:59.524Z,88.59
2022-11-28T20:00:32.998Z,88.68
2022-11-28T20:03:04.051Z,88.79
2022-11-28T20:05:35.397Z,88.86
2022-11-28T20:08:06.233Z,88.60
2022-11-28T20:10:38.316Z,89.36
2022-11-28T20:13:09.394Z,89.72
2022-11-28T20:15:44.141Z,89.47
2022-11-28T20:18:20.419Z,89.45
2022-11-28T20:20:52.082Z,90.00
2022-11-28T20:23:23.500Z,90.10
2022-11-28T20:25:54.887Z,90.36
2022-11-28T20:28:28.755Z,90.67
2022-11-28T20:31:02.420Z,90.32
2022-11-28T20:33:32.540Z,90.21
2022-11-28T20:36:10.869Z,92.33
2022-11-28T20:38:42.595Z,94.60
2022-11-28T20:41:14.404Z,94.20
2022-11-28T20:43:44.891Z,94.56
2022-11-28T20:46:25.268Z,96.48
2022-11-28T20:49:01.114Z,94.96
2022-11-28T20:51:34.698Z,95.81
2022-11-28T20:54:05.728Z,96.42
2022-11-28T20:57:04.952Z,96.80
2022-11-28T20:59:29.361Z,96.69
2022-11-28T21:02:05.536Z,96.69
2022-11-28T21:04:35.456Z,96.75
2022-11-28T21:07:09.701Z,97.50
2022-11-28T21:09:40.788Z,97.47
2022-11-28T21:12:20.684Z,96.80
2022-11-28T21:14:52.078Z,97.74
2022-11-28T21:17:26.605Z,97.04
2022-11-28T21:19:59.707Z,97.15
2022-11-28T21:22:29.617Z,96.79
2022-11-28T21:24:59.470Z,96.90
2022-11-28T21:27:32.741Z,96.92
2022-11-28T21:30:02.658Z,97.21
2022-11-28T21:32:39.257Z,96.49
2022-11-28T21:35:13.046Z,96.86
2022-11-28T21:37:47.762Z,96.80
2022-11-28T21:40:17.908Z,97.48
2022-11-28T21:42:47.785Z,97.32
2022-11-28T21:45:18.790Z,96.32
2022-11-28T21:47:51.285Z,96.03
2022-11-28T21:50:22.209Z,96.65
2022-11-28T21:52:52.069Z,95.59
2022-11-28T21:55:25.788Z,97.20
2022-11-28T21:57:55.811Z,96.61
2022-11-28T22:00:52.135Z,97.18
2022-11-28T22:03:21.243Z,96.89
2022-11-28T22:05:52.626Z,96.48
2022-11-28T22:08:22.669Z,96.19
2022-11-28T22:10:52.614Z,96.16
2022-11-28T22:13:22.523Z,95.72
2022-11-28T22:15:52.613Z,96.36
2022-11-28T22:18:27.791Z,96.09
2022-11-28T22:21:06.530Z,95.71
2022-11-28T22:23:41.264Z,95.47
2022-11-28T22:26:12.683Z,95.97
2022-11-28T22:28:50.413Z,95.64
2022-11-28T22:31:23.467Z,94.90
2022-11-28T22:33:57.014Z,95.95
2022-11-28T22:36:26.977Z,96.82
2022-11-28T22:38:59.434Z,97.04
2022-11-28T22:41:30.359Z,97.65
2022-11-28T22:44:04.354Z,97.77
2022-11-28T22:46:35.809Z,96.62
2022-11-28T22:49:09.614Z,97.34
2022-11-28T22:51:41.724Z,97.04
2022-11-28T22:54:15.731Z,96.34
2022-11-28T22:56:46.548Z,96.13
2022-11-28T22:59:18.256Z,96.96
2022-11-28T23:01:48.270Z,96.45
2022-11-28T23:04:21.080Z,96.11
2022-11-28T23:06:50.944Z,96.50
2022-11-28T23:09:22.007Z,95.73
2022-11-28T23:11:53.079Z,96.30
2022-11-28T23:14:22.919Z,96.54
2022-11-28T23:16:53.065Z,96.40
2022-11-28T23:19:26.423Z,96.55
2022-11-28T23:21:57.814Z,96.89
2022-11-28T23:24:27.937Z,96.89
2022-11-28T23:26:58.622Z,96.93
2022-11-28T23:29:28.690Z,96.92
2022-11-28T23:31:58.681Z,97.66
2022-11-28T23:34:32.345Z,97.67
2022-11-28T23:37:03.056Z,97.46
2022-11-28T23:39:32.895Z,96.88
2022-11-28T23:42:07.380Z,96.86
2022-11-28T23:44:37.162Z,96.17
2022-11-28T23:47:07.173Z,95.65
2022-11-28T23:49:39.582Z,96.42
2022-11-28T23:52:09.378Z,96.67
2022-11-28T23:54:39.258Z,96.11
2022-11-28T23:57:09.107Z,95.96
2022-11-28T23:59:38.923Z,96.33
